sensor_id;sensor_type;location;lat;lon;timestamp;temperature;humidity
55008;DHT22;40902;45.116;21.296;2024-02-16T00:01:06;154.10;2252.80
55008;DHT22;40902;45.116;21.296;2024-02-16T00:03:32;154.00;2252.80
55008;DHT22;40902;45.116;21.296;2024-02-16T00:05:58;153.90;2252.80
55008;DHT22;40902;45.116;21.296;2024-02-16T00:08:23;153.80;2252.80
55008;DHT22;40902;45.116;21.296;2024-02-16T00:10:49;153.80;2252.80
55008;DHT22;40902;45.116;21.296;2024-02-16T00:13:14;153.60;2252.80
55008;DHT22;40902;45.116;21.296;2024-02-16T00:15:40;153.60;2252.80
55008;DHT22;40902;45.116;21.296;2024-02-16T00:18:06;153.60;2252.80
55008;DHT22;40902;45.116;21.296;2024-02-16T00:20:32;128.90;2252.80
55008;DHT22;40902;45.116;21.296;2024-02-16T00:22:57;128.90;2252.80
55008;DHT22;40902;45.116;21.296;2024-02-16T00:25:23;128.80;2252.80
55008;DHT22;40902;45.116;21.296;2024-02-16T00:27:49;128.50;2252.80
55008;DHT22;40902;45.116;21.296;2024-02-16T00:30:16;128.60;2252.80
55008;DHT22;40902;45.116;21.296;2024-02-16T00:32:43;128.50;2252.80
55008;DHT22;40902;45.116;21.296;2024-02-16T00:35:11;128.40;2252.80
55008;DHT22;40902;45.116;21.296;2024-02-16T00:37:36;128.40;2252.80
55008;DHT22;40902;45.116;21.296;2024-02-16T00:40:03;128.30;2252.80
55008;DHT22;40902;45.116;21.296;2024-02-16T00:42:29;128.20;2252.80
55008;DHT22;40902;45.116;21.296;2024-02-16T00:44:56;128.20;2252.80
55008;DHT22;40902;45.116;21.296;2024-02-16T00:47:22;128.10;2252.80
55008;DHT22;40902;45.116;21.296;2024-02-16T00:49:49;128.10;2252.80
55008;DHT22;40902;45.116;21.296;2024-02-16T00:52:14;128.00;2252.80
55008;DHT22;40902;45.116;21.296;2024-02-16T00:54:40;128.00;2252.80
55008;DHT22;40902;45.116;21.296;2024-02-16T00:57:06;103.30;2227.20
55008;DHT22;40902;45.116;21.296;2024-02-16T00:59:31;128.00;2252.80
55008;DHT22;40902;45.116;21.296;2024-02-16T01:01:57;103.30;2227.20
55008;DHT22;40902;45.116;21.296;2024-02-16T01:04:23;103.20;2227.20
55008;DHT22;40902;45.116;21.296;2024-02-16T01:06:48;103.20;2227.20
55008;DHT22;40902;45.116;21.296;2024-02-16T01:09:14;103.10;2227.20
55008;DHT22;40902;45.116;21.296;2024-02-16T01:11:41;103.00;2227.20
55008;DHT22;40902;45.116;21.296;2024-02-16T01:14:07;103.00;2227.20
55008;DHT22;40902;45.116;21.296;2024-02-16T01:16:32;103.00;2227.20
55008;DHT22;40902;45.116;21.296;2024-02-16T01:18:58;103.10;2227.20
55008;DHT22;40902;45.116;21.296;2024-02-16T01:21:23;103.00;2227.20
55008;DHT22;40902;45.116;21.296;2024-02-16T01:23:49;103.00;2227.20
55008;DHT22;40902;45.116;21.296;2024-02-16T01:26:15;102.90;2227.20
55008;DHT22;40902;45.116;21.296;2024-02-16T01:28:40;102.90;2227.20
55008;DHT22;40902;45.116;21.296;2024-02-16T01:31:06;102.90;2227.20
55008;DHT22;40902;45.116;21.296;2024-02-16T01:33:31;103.00;2227.20
55008;DHT22;40902;45.116;21.296;2024-02-16T01:36:00;103.00;2227.20
55008;DHT22;40902;45.116;21.296;2024-02-16T01:38:25;103.10;2227.20
55008;DHT22;40902;45.116;21.296;2024-02-16T01:40:51;103.20;2227.20
55008;DHT22;40902;45.116;21.296;2024-02-16T01:43:19;128.00;2252.80
55008;DHT22;40902;45.116;21.296;2024-02-16T01:45:45;128.10;2252.80
55008;DHT22;40902;45.116;21.296;2024-02-16T01:48:11;128.20;2252.80
55008;DHT22;40902;45.116;21.296;2024-02-16T01:50:37;128.30;2252.80
55008;DHT22;40902;45.116;21.296;2024-02-16T01:53:03;128.40;2252.80
55008;DHT22;40902;45.116;21.296;2024-02-16T01:55:28;128.50;2252.80
55008;DHT22;40902;45.116;21.296;2024-02-16T01:57:54;128.60;2252.80
55008;DHT22;40902;45.116;21.296;2024-02-16T02:00:20;128.70;2252.80
55008;DHT22;40902;45.116;21.296;2024-02-16T02:02:46;128.70;2252.80
55008;DHT22;40902;45.116;21.296;2024-02-16T02:05:12;128.70;2252.80
55008;DHT22;40902;45.116;21.296;2024-02-16T02:07:38;128.80;2252.80
55008;DHT22;40902;45.116;21.296;2024-02-16T02:10:04;128.80;2252.80
55008;DHT22;40902;45.116;21.296;2024-02-16T02:12:29;128.90;2252.80
55008;DHT22;40902;45.116;21.296;2024-02-16T02:14:55;128.90;2252.80
55008;DHT22;40902;45.116;21.296;2024-02-16T02:17:21;128.90;2252.80
55008;DHT22;40902;45.116;21.296;2024-02-16T02:19:46;153.60;2252.80
55008;DHT22;40902;45.116;21.296;2024-02-16T02:22:16;153.60;2252.80
55008;DHT22;40902;45.116;21.296;2024-02-16T02:24:43;153.60;2252.80
55008;DHT22;40902;45.116;21.296;2024-02-16T02:27:09;153.60;2252.80
55008;DHT22;40902;45.116;21.296;2024-02-16T02:29:35;153.70;2252.80
55008;DHT22;40902;45.116;21.296;2024-02-16T02:32:01;153.80;2252.80
55008;DHT22;40902;45.116;21.296;2024-02-16T02:34:26;153.80;2252.80
55008;DHT22;40902;45.116;21.296;2024-02-16T02:36:52;153.90;2252.80
55008;DHT22;40902;45.116;21.296;2024-02-16T02:39:18;153.90;2252.80
55008;DHT22;40902;45.116;21.296;2024-02-16T02:41:44;153.90;2252.80
55008;DHT22;40902;45.116;21.296;2024-02-16T02:44:10;153.90;2252.80
55008;DHT22;40902;45.116;21.296;2024-02-16T02:46:36;154.00;2252.80
55008;DHT22;40902;45.116;21.296;2024-02-16T02:49:02;154.00;2252.80
55008;DHT22;40902;45.116;21.296;2024-02-16T02:51:29;154.00;2252.80
55008;DHT22;40902;45.116;21.296;2024-02-16T02:53:54;154.00;2252.80
55008;DHT22;40902;45.116;21.296;2024-02-16T02:56:20;154.00;2252.80
55008;DHT22;40902;45.116;21.296;2024-02-16T02:58:45;154.00;2252.80
55008;DHT22;40902;45.116;21.296;2024-02-16T03:01:11;154.00;2252.80
55008;DHT22;40902;45.116;21.296;2024-02-16T03:03:38;154.00;2252.80
55008;DHT22;40902;45.116;21.296;2024-02-16T03:06:04;154.00;2252.80
55008;DHT22;40902;45.116;21.296;2024-02-16T03:08:30;154.00;2252.80
55008;DHT22;40902;45.116;21.296;2024-02-16T03:10:55;154.00;2252.80
55008;DHT22;40902;45.116;21.296;2024-02-16T03:13:21;154.00;2252.80
55008;DHT22;40902;45.116;21.296;2024-02-16T03:15:47;154.00;2252.80
55008;DHT22;40902;45.116;21.296;2024-02-16T03:18:13;153.90;2252.80
55008;DHT22;40902;45.116;21.296;2024-02-16T03:20:40;154.00;2252.80
55008;DHT22;40902;45.116;21.296;2024-02-16T03:23:05;154.00;2252.80
55008;DHT22;40902;45.116;21.296;2024-02-16T03:25:31;153.90;2252.80
55008;DHT22;40902;45.116;21.296;2024-02-16T03:27:57;153.90;2252.80
55008;DHT22;40902;45.116;21.296;2024-02-16T03:30:22;153.90;2252.80
55008;DHT22;40902;45.116;21.296;2024-02-16T03:32:51;153.90;2252.80
55008;DHT22;40902;45.116;21.296;2024-02-16T03:35:20;153.90;2252.80
55008;DHT22;40902;45.116;21.296;2024-02-16T03:37:46;153.90;2252.80
55008;DHT22;40902;45.116;21.296;2024-02-16T03:40:12;153.90;2252.80
55008;DHT22;40902;45.116;21.296;2024-02-16T03:42:41;153.90;2252.80
55008;DHT22;40902;45.116;21.296;2024-02-16T03:45:06;153.90;2252.80
55008;DHT22;40902;45.116;21.296;2024-02-16T03:47:32;153.90;2252.80
55008;DHT22;40902;45.116;21.296;2024-02-16T03:49:58;153.90;2252.80
55008;DHT22;40902;45.116;21.296;2024-02-16T03:52:24;153.90;2252.80
55008;DHT22;40902;45.116;21.296;2024-02-16T03:54:50;153.90;2252.80
55008;DHT22;40902;45.116;21.296;2024-02-16T03:57:15;153.90;2252.80
55008;DHT22;40902;45.116;21.296;2024-02-16T03:59:42;153.90;2252.80
55008;DHT22;40902;45.116;21.296;2024-02-16T04:02:09;153.90;2252.80
55008;DHT22;40902;45.116;21.296;2024-02-16T04:04:35;153.90;2252.80
55008;DHT22;40902;45.116;21.296;2024-02-16T04:07:00;153.90;2252.80
55008;DHT22;40902;45.116;21.296;2024-02-16T04:09:26;153.90;2252.80
55008;DHT22;40902;45.116;21.296;2024-02-16T04:11:52;153.90;2252.80
55008;DHT22;40902;45.116;21.296;2024-02-16T04:14:17;153.80;2252.80
55008;DHT22;40902;45.116;21.296;2024-02-16T04:16:43;153.80;2252.80
55008;DHT22;40902;45.116;21.296;2024-02-16T04:19:09;153.80;2252.80
55008;DHT22;40902;45.116;21.296;2024-02-16T04:21:35;153.80;2252.80
55008;DHT22;40902;45.116;21.296;2024-02-16T04:24:00;153.80;2252.80
55008;DHT22;40902;45.116;21.296;2024-02-16T04:26:26;153.70;2252.80
55008;DHT22;40902;45.116;21.296;2024-02-16T04:28:51;153.70;2252.80
55008;DHT22;40902;45.116;21.296;2024-02-16T04:31:17;153.70;2252.80
55008;DHT22;40902;45.116;21.296;2024-02-16T04:33:42;153.70;2252.80
55008;DHT22;40902;45.116;21.296;2024-02-16T04:36:08;128.90;2252.80
55008;DHT22;40902;45.116;21.296;2024-02-16T04:38:34;153.60;2252.80
55008;DHT22;40902;45.116;21.296;2024-02-16T04:40:59;153.70;2252.80
55008;DHT22;40902;45.116;21.296;2024-02-16T04:43:25;153.70;2252.80
55008;DHT22;40902;45.116;21.296;2024-02-16T04:45:51;153.70;2252.80
55008;DHT22;40902;45.116;21.296;2024-02-16T04:48:16;153.70;2252.80
55008;DHT22;40902;45.116;21.296;2024-02-16T04:50:42;153.70;2252.80
55008;DHT22;40902;45.116;21.296;2024-02-16T04:53:07;153.70;2252.80
55008;DHT22;40902;45.116;21.296;2024-02-16T04:55:33;153.60;2252.80
55008;DHT22;40902;45.116;21.296;2024-02-16T04:57:59;153.60;2252.80
55008;DHT22;40902;45.116;21.296;2024-02-16T05:00:25;128.90;2252.80
55008;DHT22;40902;45.116;21.296;2024-02-16T05:02:51;128.70;2252.80
55008;DHT22;40902;45.116;21.296;2024-02-16T05:05:18;128.40;2252.80
55008;DHT22;40902;45.116;21.296;2024-02-16T05:07:46;128.30;2252.80
55008;DHT22;40902;45.116;21.296;2024-02-16T05:10:12;128.10;2252.80
55008;DHT22;40902;45.116;21.296;2024-02-16T05:12:38;103.10;2227.20
55008;DHT22;40902;45.116;21.296;2024-02-16T05:15:03;102.80;2227.20
55008;DHT22;40902;45.116;21.296;2024-02-16T05:17:31;102.70;2227.20
55008;DHT22;40902;45.116;21.296;2024-02-16T05:19:56;102.60;2227.20
55008;DHT22;40902;45.116;21.296;2024-02-16T05:22:22;102.60;2227.20
55008;DHT22;40902;45.116;21.296;2024-02-16T05:24:47;102.50;2227.20
55008;DHT22;40902;45.116;21.296;2024-02-16T05:27:13;102.50;2227.20
55008;DHT22;40902;45.116;21.296;2024-02-16T05:29:39;102.50;2227.20
55008;DHT22;40902;45.116;21.296;2024-02-16T05:32:05;102.50;2227.20
55008;DHT22;40902;45.116;21.296;2024-02-16T05:34:31;102.60;2227.20
55008;DHT22;40902;45.116;21.296;2024-02-16T05:37:05;102.60;2227.20
55008;DHT22;40902;45.116;21.296;2024-02-16T05:39:36;102.70;2227.20
55008;DHT22;40902;45.116;21.296;2024-02-16T05:42:08;102.80;2227.20
55008;DHT22;40902;45.116;21.296;2024-02-16T05:44:34;102.80;2227.20
55008;DHT22;40902;45.116;21.296;2024-02-16T05:46:59;102.90;2227.20
55008;DHT22;40902;45.116;21.296;2024-02-16T05:49:25;102.90;2227.20
55008;DHT22;40902;45.116;21.296;2024-02-16T05:51:50;103.00;2227.20
55008;DHT22;40902;45.116;21.296;2024-02-16T05:54:43;103.10;2227.20
55008;DHT22;40902;45.116;21.296;2024-02-16T05:57:09;103.20;2227.20
55008;DHT22;40902;45.116;21.296;2024-02-16T05:59:34;103.30;2227.20
55008;DHT22;40902;45.116;21.296;2024-02-16T06:02:00;103.30;2227.20
55008;DHT22;40902;45.116;21.296;2024-02-16T06:04:26;128.00;2252.80
55008;DHT22;40902;45.116;21.296;2024-02-16T06:06:51;128.10;2252.80
55008;DHT22;40902;45.116;21.296;2024-02-16T06:09:19;128.20;2252.80
55008;DHT22;40902;45.116;21.296;2024-02-16T06:11:44;128.30;2252.80
55008;DHT22;40902;45.116;21.296;2024-02-16T06:14:10;128.40;2252.80
55008;DHT22;40902;45.116;21.296;2024-02-16T06:16:36;128.40;2252.80
55008;DHT22;40902;45.116;21.296;2024-02-16T06:19:01;128.50;2252.80
55008;DHT22;40902;45.116;21.296;2024-02-16T06:21:27;128.50;2252.80
55008;DHT22;40902;45.116;21.296;2024-02-16T06:23:53;128.50;2252.80
55008;DHT22;40902;45.116;21.296;2024-02-16T06:26:18;128.50;2252.80
55008;DHT22;40902;45.116;21.296;2024-02-16T06:28:45;128.30;2252.80
55008;DHT22;40902;45.116;21.296;2024-02-16T06:31:12;128.30;2252.80
55008;DHT22;40902;45.116;21.296;2024-02-16T06:33:38;128.10;2252.80
55008;DHT22;40902;45.116;21.296;2024-02-16T06:36:03;128.20;2252.80
55008;DHT22;40902;45.116;21.296;2024-02-16T06:38:29;128.20;2252.80
55008;DHT22;40902;45.116;21.296;2024-02-16T06:40:54;128.00;2252.80
55008;DHT22;40902;45.116;21.296;2024-02-16T06:43:20;103.30;2227.20
55008;DHT22;40902;45.116;21.296;2024-02-16T06:45:45;128.00;2252.80
55008;DHT22;40902;45.116;21.296;2024-02-16T06:48:11;128.10;2252.80
55008;DHT22;40902;45.116;21.296;2024-02-16T06:50:37;128.20;2252.80
55008;DHT22;40902;45.116;21.296;2024-02-16T06:53:03;128.30;2252.80
55008;DHT22;40902;45.116;21.296;2024-02-16T06:55:28;128.40;2252.80
55008;DHT22;40902;45.116;21.296;2024-02-16T06:57:54;128.70;2252.80
55008;DHT22;40902;45.116;21.296;2024-02-16T07:00:19;128.90;2252.80
55008;DHT22;40902;45.116;21.296;2024-02-16T07:02:47;153.60;2252.80
55008;DHT22;40902;45.116;21.296;2024-02-16T07:05:12;153.70;2252.80
55008;DHT22;40902;45.116;21.296;2024-02-16T07:07:38;153.70;2252.80
55008;DHT22;40902;45.116;21.296;2024-02-16T07:10:04;153.60;2252.80
55008;DHT22;40902;45.116;21.296;2024-02-16T07:12:30;153.60;2252.80
55008;DHT22;40902;45.116;21.296;2024-02-16T07:14:58;128.90;2252.80
55008;DHT22;40902;45.116;21.296;2024-02-16T07:17:24;128.90;2252.80
55008;DHT22;40902;45.116;21.296;2024-02-16T07:19:49;128.90;2252.80
55008;DHT22;40902;45.116;21.296;2024-02-16T07:22:15;153.60;2252.80
55008;DHT22;40902;45.116;21.296;2024-02-16T07:24:41;153.60;2252.80
55008;DHT22;40902;45.116;21.296;2024-02-16T07:27:06;153.80;2252.80
55008;DHT22;40902;45.116;21.296;2024-02-16T07:29:32;153.90;2252.80
55008;DHT22;40902;45.116;21.296;2024-02-16T07:31:57;154.00;2252.80
55008;DHT22;40902;45.116;21.296;2024-02-16T07:34:24;154.20;2252.80
55008;DHT22;40902;45.116;21.296;2024-02-16T07:36:49;154.40;2252.80
55008;DHT22;40902;45.116;21.296;2024-02-16T07:39:15;179.20;2252.80
55008;DHT22;40902;45.116;21.296;2024-02-16T07:41:40;179.40;2252.80
55008;DHT22;40902;45.116;21.296;2024-02-16T07:44:06;179.70;2252.80
55008;DHT22;40902;45.116;21.296;2024-02-16T07:46:32;179.90;2252.80
55008;DHT22;40902;45.116;21.296;2024-02-16T07:48:57;204.80;2252.80
55008;DHT22;40902;45.116;21.296;2024-02-16T07:51:23;205.10;2252.80
55008;DHT22;40902;45.116;21.296;2024-02-16T07:53:49;205.30;2252.80
55008;DHT22;40902;45.116;21.296;2024-02-16T07:56:15;205.50;2252.80
55008;DHT22;40902;45.116;21.296;2024-02-16T07:58:41;230.40;2252.80
55008;DHT22;40902;45.116;21.296;2024-02-16T08:01:08;230.50;2252.80
55008;DHT22;40902;45.116;21.296;2024-02-16T08:03:36;230.60;2252.80
55008;DHT22;40902;45.116;21.296;2024-02-16T08:06:02;230.80;2252.80
55008;DHT22;40902;45.116;21.296;2024-02-16T08:08:27;230.90;2252.80
55008;DHT22;40902;45.116;21.296;2024-02-16T08:10:53;231.00;2252.80
55008;DHT22;40902;45.116;21.296;2024-02-16T08:13:18;231.10;2252.80
55008;DHT22;40902;45.116;21.296;2024-02-16T08:15:46;231.30;2252.80
55008;DHT22;40902;45.116;21.296;2024-02-16T08:18:12;256.00;2252.80
55008;DHT22;40902;45.116;21.296;2024-02-16T08:20:38;256.10;2252.80
55008;DHT22;40902;45.116;21.296;2024-02-16T08:23:04;256.20;2252.80
55008;DHT22;40902;45.116;21.296;2024-02-16T08:25:30;256.30;2252.80
55008;DHT22;40902;45.116;21.296;2024-02-16T08:27:58;256.40;2252.80
55008;DHT22;40902;45.116;21.296;2024-02-16T08:30:24;256.60;2252.80
55008;DHT22;40902;45.116;21.296;2024-02-16T08:32:50;256.60;2252.80
55008;DHT22;40902;45.116;21.296;2024-02-16T08:35:16;256.70;2252.80
55008;DHT22;40902;45.116;21.296;2024-02-16T08:37:43;256.70;2252.80
55008;DHT22;40902;45.116;21.296;2024-02-16T08:40:09;256.80;2252.80
55008;DHT22;40902;45.116;21.296;2024-02-16T08:42:42;256.80;2252.80
55008;DHT22;40902;45.116;21.296;2024-02-16T08:45:08;256.90;2252.80
55008;DHT22;40902;45.116;21.296;2024-02-16T08:47:34;281.60;2278.40
55008;DHT22;40902;45.116;21.296;2024-02-16T08:49:59;281.70;2278.40
55008;DHT22;40902;45.116;21.296;2024-02-16T08:52:26;281.70;2278.40
55008;DHT22;40902;45.116;21.296;2024-02-16T08:54:51;281.80;2278.40
55008;DHT22;40902;45.116;21.296;2024-02-16T08:57:17;281.90;2278.40
55008;DHT22;40902;45.116;21.296;2024-02-16T08:59:42;282.00;2278.40
55008;DHT22;40902;45.116;21.296;2024-02-16T09:02:09;282.10;2278.40
55008;DHT22;40902;45.116;21.296;2024-02-16T09:04:35;282.30;2278.40
55008;DHT22;40902;45.116;21.296;2024-02-16T09:07:01;282.30;2278.40
55008;DHT22;40902;45.116;21.296;2024-02-16T09:09:27;282.50;2278.40
55008;DHT22;40902;45.116;21.296;2024-02-16T09:11:53;307.20;2304.00
55008;DHT22;40902;45.116;21.296;2024-02-16T09:14:19;307.20;2304.00
55008;DHT22;40902;45.116;21.296;2024-02-16T09:16:45;307.20;2304.00
55008;DHT22;40902;45.116;21.296;2024-02-16T09:19:10;307.40;2304.00
55008;DHT22;40902;45.116;21.296;2024-02-16T09:21:36;307.40;2304.00
55008;DHT22;40902;45.116;21.296;2024-02-16T09:24:02;307.40;2304.00
55008;DHT22;40902;45.116;21.296;2024-02-16T09:26:29;307.50;2304.00
55008;DHT22;40902;45.116;21.296;2024-02-16T09:28:59;307.60;2304.00
55008;DHT22;40902;45.116;21.296;2024-02-16T09:31:24;307.70;2304.00
55008;DHT22;40902;45.116;21.296;2024-02-16T09:33:50;307.80;2304.00
55008;DHT22;40902;45.116;21.296;2024-02-16T09:36:17;307.90;2304.00
55008;DHT22;40902;45.116;21.296;2024-02-16T09:38:43;307.90;2304.00
55008;DHT22;40902;45.116;21.296;2024-02-16T09:41:08;308.00;2304.00
55008;DHT22;40902;45.116;21.296;2024-02-16T09:43:35;308.10;2304.00
55008;DHT22;40902;45.116;21.296;2024-02-16T09:46:00;332.80;2329.60
55008;DHT22;40902;45.116;21.296;2024-02-16T09:48:27;332.80;2329.60
55008;DHT22;40902;45.116;21.296;2024-02-16T09:50:56;332.80;2329.60
55008;DHT22;40902;45.116;21.296;2024-02-16T09:53:24;332.90;2329.60
55008;DHT22;40902;45.116;21.296;2024-02-16T09:55:50;333.00;2329.60
55008;DHT22;40902;45.116;21.296;2024-02-16T09:58:16;333.00;2304.00
55008;DHT22;40902;45.116;21.296;2024-02-16T10:00:50;333.00;2278.40
55008;DHT22;40902;45.116;21.296;2024-02-16T10:03:49;333.00;2304.00
55008;DHT22;40902;45.116;21.296;2024-02-16T10:06:09;333.10;2304.00
55008;DHT22;40902;45.116;21.296;2024-02-16T10:08:35;333.10;2304.00
55008;DHT22;40902;45.116;21.296;2024-02-16T10:11:14;333.10;2304.00
55008;DHT22;40902;45.116;21.296;2024-02-16T10:13:40;333.10;2304.00
55008;DHT22;40902;45.116;21.296;2024-02-16T10:16:06;333.20;2304.00
55008;DHT22;40902;45.116;21.296;2024-02-16T10:18:35;333.20;2304.00
55008;DHT22;40902;45.116;21.296;2024-02-16T10:21:00;333.30;2304.00
55008;DHT22;40902;45.116;21.296;2024-02-16T10:23:26;333.40;2278.40
55008;DHT22;40902;45.116;21.296;2024-02-16T10:25:51;333.40;2278.40
55008;DHT22;40902;45.116;21.296;2024-02-16T10:28:17;333.50;2252.80
55008;DHT22;40902;45.116;21.296;2024-02-16T10:30:43;333.50;2278.40
55008;DHT22;40902;45.116;21.296;2024-02-16T10:33:09;333.50;2278.40
55008;DHT22;40902;45.116;21.296;2024-02-16T10:35:37;333.50;2252.80
55008;DHT22;40902;45.116;21.296;2024-02-16T10:38:06;333.50;2227.20
55008;DHT22;40902;45.116;21.296;2024-02-16T10:40:39;333.60;2227.20
55008;DHT22;40902;45.116;21.296;2024-02-16T10:43:05;333.60;2227.20
55008;DHT22;40902;45.116;21.296;2024-02-16T10:45:32;333.60;2227.20
55008;DHT22;40902;45.116;21.296;2024-02-16T10:47:57;333.60;2227.20
55008;DHT22;40902;45.116;21.296;2024-02-16T10:50:23;333.70;2227.20
55008;DHT22;40902;45.116;21.296;2024-02-16T10:52:49;333.70;2201.60
55008;DHT22;40902;45.116;21.296;2024-02-16T10:55:15;333.70;2176.00
55008;DHT22;40902;45.116;21.296;2024-02-16T10:57:41;358.40;2201.60
55008;DHT22;40902;45.116;21.296;2024-02-16T11:00:10;358.40;2201.60
55008;DHT22;40902;45.116;21.296;2024-02-16T11:02:55;358.40;2176.00
55008;DHT22;40902;45.116;21.296;2024-02-16T11:05:34;358.40;2176.00
55008;DHT22;40902;45.116;21.296;2024-02-16T11:08:00;358.60;2150.40
55008;DHT22;40902;45.116;21.296;2024-02-16T11:10:26;358.60;2150.40
55008;DHT22;40902;45.116;21.296;2024-02-16T11:12:52;358.60;2124.80
55008;DHT22;40902;45.116;21.296;2024-02-16T11:15:28;358.60;2150.40
55008;DHT22;40902;45.116;21.296;2024-02-16T11:17:55;358.60;2150.40
55008;DHT22;40902;45.116;21.296;2024-02-16T11:20:23;358.70;2150.40
55008;DHT22;40902;45.116;21.296;2024-02-16T11:22:50;358.70;2150.40
55008;DHT22;40902;45.116;21.296;2024-02-16T11:25:16;358.70;2124.80
55008;DHT22;40902;45.116;21.296;2024-02-16T11:27:41;358.70;2150.40
55008;DHT22;40902;45.116;21.296;2024-02-16T11:30:11;358.80;2150.40
55008;DHT22;40902;45.116;21.296;2024-02-16T11:32:37;358.80;2124.80
55008;DHT22;40902;45.116;21.296;2024-02-16T11:35:06;358.80;2124.80
55008;DHT22;40902;45.116;21.296;2024-02-16T11:37:33;358.90;2124.80
55008;DHT22;40902;45.116;21.296;2024-02-16T11:39:58;358.90;2124.80
55008;DHT22;40902;45.116;21.296;2024-02-16T11:42:24;358.90;2124.80
55008;DHT22;40902;45.116;21.296;2024-02-16T11:44:53;359.00;2124.80
55008;DHT22;40902;45.116;21.296;2024-02-16T11:47:19;359.00;2124.80
55008;DHT22;40902;45.116;21.296;2024-02-16T11:50:03;359.00;2124.80
55008;DHT22;40902;45.116;21.296;2024-02-16T11:52:29;359.00;2099.20
55008;DHT22;40902;45.116;21.296;2024-02-16T11:54:54;359.10;2099.20
55008;DHT22;40902;45.116;21.296;2024-02-16T11:57:21;359.10;2073.60
55008;DHT22;40902;45.116;21.296;2024-02-16T11:59:48;359.20;2073.60
55008;DHT22;40902;45.116;21.296;2024-02-16T12:02:17;359.30;2073.60
55008;DHT22;40902;45.116;21.296;2024-02-16T12:04:44;359.30;2048.00
55008;DHT22;40902;45.116;21.296;2024-02-16T12:07:12;384.00;2022.40
55008;DHT22;40902;45.116;21.296;2024-02-16T12:09:37;384.00;2022.40
55008;DHT22;40902;45.116;21.296;2024-02-16T12:12:04;384.10;2022.40
55008;DHT22;40902;45.116;21.296;2024-02-16T12:14:31;384.10;1996.80
55008;DHT22;40902;45.116;21.296;2024-02-16T12:16:57;384.20;1996.80
55008;DHT22;40902;45.116;21.296;2024-02-16T12:19:23;384.20;1971.20
55008;DHT22;40902;45.116;21.296;2024-02-16T12:21:49;384.30;1971.20
55008;DHT22;40902;45.116;21.296;2024-02-16T12:24:16;384.40;1971.20
55008;DHT22;40902;45.116;21.296;2024-02-16T12:26:41;384.40;1945.60
55008;DHT22;40902;45.116;21.296;2024-02-16T12:29:07;384.40;1945.60
55008;DHT22;40902;45.116;21.296;2024-02-16T12:31:38;384.40;1920.00
55008;DHT22;40902;45.116;21.296;2024-02-16T12:34:03;384.40;1920.00
55008;DHT22;40902;45.116;21.296;2024-02-16T12:36:30;384.40;1894.40
55008;DHT22;40902;45.116;21.296;2024-02-16T12:38:56;384.50;1945.60
55008;DHT22;40902;45.116;21.296;2024-02-16T12:41:21;384.50;1920.00
55008;DHT22;40902;45.116;21.296;2024-02-16T12:43:47;384.80;1920.00
55008;DHT22;40902;45.116;21.296;2024-02-16T12:46:13;384.60;1920.00
55008;DHT22;40902;45.116;21.296;2024-02-16T12:48:38;384.60;1920.00
55008;DHT22;40902;45.116;21.296;2024-02-16T12:51:04;384.60;1920.00
55008;DHT22;40902;45.116;21.296;2024-02-16T12:53:30;384.50;1894.40
55008;DHT22;40902;45.116;21.296;2024-02-16T12:56:01;384.60;1894.40
55008;DHT22;40902;45.116;21.296;2024-02-16T12:58:26;384.70;1920.00
55008;DHT22;40902;45.116;21.296;2024-02-16T13:00:52;384.70;1920.00
55008;DHT22;40902;45.116;21.296;2024-02-16T13:03:18;384.60;1920.00
55008;DHT22;40902;45.116;21.296;2024-02-16T13:05:44;384.70;1920.00
55008;DHT22;40902;45.116;21.296;2024-02-16T13:08:09;384.70;1894.40
55008;DHT22;40902;45.116;21.296;2024-02-16T13:10:35;384.70;1894.40
55008;DHT22;40902;45.116;21.296;2024-02-16T13:13:00;384.70;1894.40
55008;DHT22;40902;45.116;21.296;2024-02-16T13:15:26;384.80;1894.40
55008;DHT22;40902;45.116;21.296;2024-02-16T13:17:51;384.80;1894.40
55008;DHT22;40902;45.116;21.296;2024-02-16T13:20:17;384.80;1894.40
55008;DHT22;40902;45.116;21.296;2024-02-16T13:22:44;384.80;1868.80
55008;DHT22;40902;45.116;21.296;2024-02-16T13:25:09;384.90;1868.80
55008;DHT22;40902;45.116;21.296;2024-02-16T13:27:35;384.90;1894.40
55008;DHT22;40902;45.116;21.296;2024-02-16T13:30:00;384.90;1894.40
55008;DHT22;40902;45.116;21.296;2024-02-16T13:32:26;409.60;1920.00
55008;DHT22;40902;45.116;21.296;2024-02-16T13:34:52;384.90;1868.80
55008;DHT22;40902;45.116;21.296;2024-02-16T13:37:17;384.80;1868.80
55008;DHT22;40902;45.116;21.296;2024-02-16T13:39:43;384.80;1894.40
55008;DHT22;40902;45.116;21.296;2024-02-16T13:42:09;384.80;1868.80
55008;DHT22;40902;45.116;21.296;2024-02-16T13:44:36;384.80;1868.80
55008;DHT22;40902;45.116;21.296;2024-02-16T13:47:01;384.90;1894.40
55008;DHT22;40902;45.116;21.296;2024-02-16T13:49:27;384.90;1868.80
55008;DHT22;40902;45.116;21.296;2024-02-16T13:51:53;384.90;1868.80
55008;DHT22;40902;45.116;21.296;2024-02-16T13:54:19;384.90;1868.80
55008;DHT22;40902;45.116;21.296;2024-02-16T13:56:46;384.90;1868.80
55008;DHT22;40902;45.116;21.296;2024-02-16T13:59:12;409.60;1920.00
55008;DHT22;40902;45.116;21.296;2024-02-16T14:01:37;384.90;1868.80
55008;DHT22;40902;45.116;21.296;2024-02-16T14:04:03;384.90;1868.80
55008;DHT22;40902;45.116;21.296;2024-02-16T14:06:29;384.90;1868.80
55008;DHT22;40902;45.116;21.296;2024-02-16T14:08:56;384.90;1868.80
55008;DHT22;40902;45.116;21.296;2024-02-16T14:11:22;384.90;1868.80
55008;DHT22;40902;45.116;21.296;2024-02-16T14:13:48;384.90;1894.40
55008;DHT22;40902;45.116;21.296;2024-02-16T14:16:14;384.90;1894.40
55008;DHT22;40902;45.116;21.296;2024-02-16T14:18:39;409.60;1894.40
55008;DHT22;40902;45.116;21.296;2024-02-16T14:21:05;409.60;1920.00
55008;DHT22;40902;45.116;21.296;2024-02-16T14:23:31;409.60;1894.40
55008;DHT22;40902;45.116;21.296;2024-02-16T14:25:57;409.60;1894.40
55008;DHT22;40902;45.116;21.296;2024-02-16T14:28:23;384.90;1868.80
55008;DHT22;40902;45.116;21.296;2024-02-16T14:30:48;409.70;1894.40